Panola, South Carolina
Current Conditions -  °F | °C
As of 4:38 AM on Sunday 23 Nov 2014 (Local Time) from KSSC Reporting Station
Moderate Rain Moderate Rain  
Wind Chill: 50°   Ceiling: 7000
Heat Index: 50°   Visibility: 5mi
Dew Point: 50°   Wind: 2mph
Humidity: 100%   Direction: 70°ENE
Pressure: 30.21"   Gusts: NA
Location:  33.7445°N, 80.5249°W
Report Text: KSSC 230938Z AUTO 07002KT 5SM R04/5000FT RA BR OVC070 10/10 A3021 RMK AO2 $
Loading
Personal Weather Stations






























Interactive Weather Map New forecast layout! Learn more

10-Day Weather Forecast

Advertisements
Track Severe Weather on mobile